sensor_id;sensor_type;location;lat;lon;timestamp;temperature;humidity
66861;SHT31;53770;42.334;23.550;2022-09-09T00:01:19;14.90;73.21
66861;SHT31;53770;42.334;23.550;2022-09-09T00:03:53;14.87;73.30
66861;SHT31;53770;42.334;23.550;2022-09-09T00:06:24;14.83;73.44
66861;SHT31;53770;42.334;23.550;2022-09-09T00:09:00;14.77;73.70
66861;SHT31;53770;42.334;23.550;2022-09-09T00:11:32;14.77;73.91
66861;SHT31;53770;42.334;23.550;2022-09-09T00:14:13;14.77;73.90
66861;SHT31;53770;42.334;23.550;2022-09-09T00:16:46;14.77;73.83
66861;SHT31;53770;42.334;23.550;2022-09-09T00:19:20;14.81;73.75
66861;SHT31;53770;42.334;23.550;2022-09-09T00:21:53;14.79;73.64
66861;SHT31;53770;42.334;23.550;2022-09-09T00:24:28;14.81;73.49
66861;SHT31;53770;42.334;23.550;2022-09-09T00:26:59;14.81;73.41
66861;SHT31;53770;42.334;23.550;2022-09-09T00:29:34;14.79;73.59
66861;SHT31;53770;42.334;23.550;2022-09-09T00:32:11;14.77;73.65
66861;SHT31;53770;42.334;23.550;2022-09-09T00:34:48;14.77;73.71
66861;SHT31;53770;42.334;23.550;2022-09-09T00:37:15;14.77;73.78
66861;SHT31;53770;42.334;23.550;2022-09-09T00:39:43;14.71;73.98
66861;SHT31;53770;42.334;23.550;2022-09-09T00:42:14;14.69;74.08
66861;SHT31;53770;42.334;23.550;2022-09-09T00:44:52;14.70;73.93
66861;SHT31;53770;42.334;23.550;2022-09-09T00:47:42;14.69;73.92
66861;SHT31;53770;42.334;23.550;2022-09-09T00:53:14;14.69;73.80
66861;SHT31;53770;42.334;23.550;2022-09-09T00:55:48;14.63;73.85
66861;SHT31;53770;42.334;23.550;2022-09-09T00:58:16;14.59;73.88
66861;SHT31;53770;42.334;23.550;2022-09-09T01:00:46;14.60;73.81
66861;SHT31;53770;42.334;23.550;2022-09-09T01:03:33;14.57;73.98
66861;SHT31;53770;42.334;23.550;2022-09-09T01:06:13;14.56;74.00
66861;SHT31;53770;42.334;23.550;2022-09-09T01:09:05;14.52;74.17
66861;SHT31;53770;42.334;23.550;2022-09-09T01:11:47;14.50;74.11
66861;SHT31;53770;42.334;23.550;2022-09-09T01:14:24;14.47;73.97
66861;SHT31;53770;42.334;23.550;2022-09-09T01:16:59;14.40;74.00
66861;SHT31;53770;42.334;23.550;2022-09-09T01:19:47;14.33;74.06
66861;SHT31;53770;42.334;23.550;2022-09-09T01:22:22;14.26;74.48
66861;SHT31;53770;42.334;23.550;2022-09-09T01:25:16;14.28;74.88
66861;SHT31;53770;42.334;23.550;2022-09-09T01:27:46;14.32;74.94
66861;SHT31;53770;42.334;23.550;2022-09-09T01:30:16;14.33;74.92
66861;SHT31;53770;42.334;23.550;2022-09-09T01:32:45;14.36;74.98
66861;SHT31;53770;42.334;23.550;2022-09-09T01:35:18;14.33;74.92
66861;SHT31;53770;42.334;23.550;2022-09-09T01:37:49;14.35;74.98
66861;SHT31;53770;42.334;23.550;2022-09-09T01:40:16;14.30;74.92
66861;SHT31;53770;42.334;23.550;2022-09-09T01:42:42;14.35;74.71
66861;SHT31;53770;42.334;23.550;2022-09-09T01:45:11;14.37;74.69
66861;SHT31;53770;42.334;23.550;2022-09-09T01:47:38;14.39;74.56
66861;SHT31;53770;42.334;23.550;2022-09-09T01:50:06;14.39;74.40
66861;SHT31;53770;42.334;23.550;2022-09-09T01:52:35;14.37;74.40
66861;SHT31;53770;42.334;23.550;2022-09-09T01:55:03;14.37;74.59
66861;SHT31;53770;42.334;23.550;2022-09-09T01:57:33;14.35;74.76
66861;SHT31;53770;42.334;23.550;2022-09-09T02:00:07;14.35;74.92
66861;SHT31;53770;42.334;23.550;2022-09-09T02:02:42;14.33;74.88
66861;SHT31;53770;42.334;23.550;2022-09-09T02:05:29;14.33;74.79
66861;SHT31;53770;42.334;23.550;2022-09-09T02:08:03;14.30;74.52
66861;SHT31;53770;42.334;23.550;2022-09-09T02:10:37;14.21;74.21
66861;SHT31;53770;42.334;23.550;2022-09-09T02:13:10;14.15;74.20
66861;SHT31;53770;42.334;23.550;2022-09-09T02:15:41;14.04;74.11
66861;SHT31;53770;42.334;23.550;2022-09-09T02:18:12;13.79;74.72
66861;SHT31;53770;42.334;23.550;2022-09-09T02:20:42;13.70;75.11
66861;SHT31;53770;42.334;23.550;2022-09-09T02:23:11;13.53;76.22
66861;SHT31;53770;42.334;23.550;2022-09-09T02:25:39;13.38;76.93
66861;SHT31;53770;42.334;23.550;2022-09-09T02:28:07;13.30;77.66
66861;SHT31;53770;42.334;23.550;2022-09-09T02:30:37;13.30;78.05
66861;SHT31;53770;42.334;23.550;2022-09-09T02:33:07;13.33;78.48
66861;SHT31;53770;42.334;23.550;2022-09-09T02:35:37;13.36;78.82
66861;SHT31;53770;42.334;23.550;2022-09-09T02:38:08;13.38;78.78
66861;SHT31;53770;42.334;23.550;2022-09-09T02:40:36;13.40;78.79
66861;SHT31;53770;42.334;23.550;2022-09-09T02:43:03;13.39;78.69
66861;SHT31;53770;42.334;23.550;2022-09-09T02:45:36;13.40;78.80
66861;SHT31;53770;42.334;23.550;2022-09-09T02:48:12;13.43;78.66
66861;SHT31;53770;42.334;23.550;2022-09-09T02:50:48;13.40;78.58
66861;SHT31;53770;42.334;23.550;2022-09-09T02:53:21;13.42;78.58
66861;SHT31;53770;42.334;23.550;2022-09-09T02:55:52;13.44;78.57
66861;SHT31;53770;42.334;23.550;2022-09-09T02:58:21;13.42;78.40
66861;SHT31;53770;42.334;23.550;2022-09-09T03:00:50;13.42;78.26
66861;SHT31;53770;42.334;23.550;2022-09-09T03:03:18;13.43;78.03
66861;SHT31;53770;42.334;23.550;2022-09-09T03:05:47;13.43;77.80
66861;SHT31;53770;42.334;23.550;2022-09-09T03:08:13;13.43;77.54
66861;SHT31;53770;42.334;23.550;2022-09-09T03:10:40;13.46;77.42
66861;SHT31;53770;42.334;23.550;2022-09-09T03:13:07;13.50;77.21
66861;SHT31;53770;42.334;23.550;2022-09-09T03:15:34;13.54;76.98
66861;SHT31;53770;42.334;23.550;2022-09-09T03:18:01;13.51;76.90
66861;SHT31;53770;42.334;23.550;2022-09-09T03:20:29;13.56;76.70
66861;SHT31;53770;42.334;23.550;2022-09-09T03:22:59;13.59;76.52
66861;SHT31;53770;42.334;23.550;2022-09-09T03:25:26;13.59;76.41
66861;SHT31;53770;42.334;23.550;2022-09-09T03:27:54;13.56;76.39
66861;SHT31;53770;42.334;23.550;2022-09-09T03:30:21;13.56;76.37
66861;SHT31;53770;42.334;23.550;2022-09-09T03:32:48;13.59;76.29
66861;SHT31;53770;42.334;23.550;2022-09-09T03:35:15;13.57;76.25
66861;SHT31;53770;42.334;23.550;2022-09-09T03:37:42;13.57;76.26
66861;SHT31;53770;42.334;23.550;2022-09-09T03:40:11;13.56;76.18
66861;SHT31;53770;42.334;23.550;2022-09-09T03:42:38;13.56;76.15
66861;SHT31;53770;42.334;23.550;2022-09-09T03:45:07;13.56;76.13
66861;SHT31;53770;42.334;23.550;2022-09-09T03:47:35;13.53;76.15
66861;SHT31;53770;42.334;23.550;2022-09-09T03:50:02;13.56;76.10
66861;SHT31;53770;42.334;23.550;2022-09-09T03:52:29;13.56;75.98
66861;SHT31;53770;42.334;23.550;2022-09-09T03:54:56;13.54;76.19
66861;SHT31;53770;42.334;23.550;2022-09-09T03:57:24;13.43;77.14
66861;SHT31;53770;42.334;23.550;2022-09-09T03:59:51;13.19;77.83
66861;SHT31;53770;42.334;23.550;2022-09-09T04:02:17;13.12;78.59
66861;SHT31;53770;42.334;23.550;2022-09-09T04:04:44;12.96;79.10
66861;SHT31;53770;42.334;23.550;2022-09-09T04:07:11;12.88;79.66
66861;SHT31;53770;42.334;23.550;2022-09-09T04:09:38;12.85;80.07
66861;SHT31;53770;42.334;23.550;2022-09-09T04:12:05;12.92;80.10
66861;SHT31;53770;42.334;23.550;2022-09-09T04:14:33;12.95;80.14
66861;SHT31;53770;42.334;23.550;2022-09-09T04:17:00;12.99;80.26
66861;SHT31;53770;42.334;23.550;2022-09-09T04:19:29;13.06;80.18
66861;SHT31;53770;42.334;23.550;2022-09-09T04:21:56;13.12;80.24
66861;SHT31;53770;42.334;23.550;2022-09-09T04:24:23;13.19;80.09
66861;SHT31;53770;42.334;23.550;2022-09-09T04:26:52;13.24;79.81
66861;SHT31;53770;42.334;23.550;2022-09-09T04:29:19;13.32;79.28
66861;SHT31;53770;42.334;23.550;2022-09-09T04:31:47;13.40;78.89
66861;SHT31;53770;42.334;23.550;2022-09-09T04:34:14;13.47;78.62
66861;SHT31;53770;42.334;23.550;2022-09-09T04:36:40;13.53;77.94
66861;SHT31;53770;42.334;23.550;2022-09-09T04:39:07;13.59;77.64
66861;SHT31;53770;42.334;23.550;2022-09-09T04:41:34;13.63;77.48
66861;SHT31;53770;42.334;23.550;2022-09-09T04:44:03;13.68;77.35
66861;SHT31;53770;42.334;23.550;2022-09-09T04:46:29;13.75;77.28
66861;SHT31;53770;42.334;23.550;2022-09-09T04:48:57;13.85;77.08
66861;SHT31;53770;42.334;23.550;2022-09-09T04:51:24;13.97;76.80
66861;SHT31;53770;42.334;23.550;2022-09-09T04:53:51;14.02;76.48
66861;SHT31;53770;42.334;23.550;2022-09-09T04:56:19;14.16;76.16
66861;SHT31;53770;42.334;23.550;2022-09-09T04:58:46;14.28;75.85
66861;SHT31;53770;42.334;23.550;2022-09-09T05:01:14;14.42;75.45
66861;SHT31;53770;42.334;23.550;2022-09-09T05:03:41;14.50;75.25
66861;SHT31;53770;42.334;23.550;2022-09-09T05:06:10;14.62;75.11
66861;SHT31;53770;42.334;23.550;2022-09-09T05:08:38;14.81;74.69
66861;SHT31;53770;42.334;23.550;2022-09-09T05:11:13;14.97;74.14
66861;SHT31;53770;42.334;23.550;2022-09-09T05:13:40;15.07;73.49
66861;SHT31;53770;42.334;23.550;2022-09-09T05:16:07;15.11;73.07
66861;SHT31;53770;42.334;23.550;2022-09-09T05:18:35;15.12;72.94
66861;SHT31;53770;42.334;23.550;2022-09-09T05:21:02;15.24;72.70
66861;SHT31;53770;42.334;23.550;2022-09-09T05:23:30;15.22;72.42
66861;SHT31;53770;42.334;23.550;2022-09-09T05:25:59;15.24;72.45
66861;SHT31;53770;42.334;23.550;2022-09-09T05:28:27;15.28;72.55
66861;SHT31;53770;42.334;23.550;2022-09-09T05:30:58;15.35;72.60
66861;SHT31;53770;42.334;23.550;2022-09-09T05:33:26;15.40;72.49
66861;SHT31;53770;42.334;23.550;2022-09-09T05:35:57;15.55;72.45
66861;SHT31;53770;42.334;23.550;2022-09-09T05:38:24;15.63;72.52
66861;SHT31;53770;42.334;23.550;2022-09-09T05:40:53;15.70;72.47
66861;SHT31;53770;42.334;23.550;2022-09-09T05:43:20;15.90;72.32
66861;SHT31;53770;42.334;23.550;2022-09-09T05:45:48;16.03;72.21
66861;SHT31;53770;42.334;23.550;2022-09-09T05:48:15;16.22;72.05
66861;SHT31;53770;42.334;23.550;2022-09-09T05:50:42;16.35;72.19
66861;SHT31;53770;42.334;23.550;2022-09-09T05:53:10;16.44;72.25
66861;SHT31;53770;42.334;23.550;2022-09-09T05:55:37;16.62;71.92
66861;SHT31;53770;42.334;23.550;2022-09-09T05:58:05;16.75;71.70
66861;SHT31;53770;42.334;23.550;2022-09-09T06:00:32;16.91;71.08
66861;SHT31;53770;42.334;23.550;2022-09-09T06:02:58;17.06;70.83
66861;SHT31;53770;42.334;23.550;2022-09-09T06:05:25;17.24;70.30
66861;SHT31;53770;42.334;23.550;2022-09-09T06:07:54;17.37;69.53
66861;SHT31;53770;42.334;23.550;2022-09-09T06:10:21;17.54;69.35
66861;SHT31;53770;42.334;23.550;2022-09-09T06:12:47;17.68;68.83
66861;SHT31;53770;42.334;23.550;2022-09-09T06:15:15;17.81;68.14
66861;SHT31;53770;42.334;23.550;2022-09-09T06:17:42;17.97;67.94
66861;SHT31;53770;42.334;23.550;2022-09-09T06:20:10;18.13;67.33
66861;SHT31;53770;42.334;23.550;2022-09-09T06:22:39;18.23;65.84
66861;SHT31;53770;42.334;23.550;2022-09-09T06:25:07;18.31;66.09
66861;SHT31;53770;42.334;23.550;2022-09-09T06:27:34;18.43;66.05
66861;SHT31;53770;42.334;23.550;2022-09-09T06:30:01;18.59;65.89
66861;SHT31;53770;42.334;23.550;2022-09-09T06:32:30;18.78;65.14
66861;SHT31;53770;42.334;23.550;2022-09-09T06:35:00;18.91;64.56
66861;SHT31;53770;42.334;23.550;2022-09-09T06:37:27;19.03;64.07
66861;SHT31;53770;42.334;23.550;2022-09-09T06:39:54;19.16;63.89
66861;SHT31;53770;42.334;23.550;2022-09-09T06:42:21;19.33;63.53
66861;SHT31;53770;42.334;23.550;2022-09-09T06:44:48;19.50;63.35
66861;SHT31;53770;42.334;23.550;2022-09-09T06:47:14;19.71;62.93
66861;SHT31;53770;42.334;23.550;2022-09-09T06:49:43;19.83;62.61
66861;SHT31;53770;42.334;23.550;2022-09-09T06:52:09;20.04;62.64
66861;SHT31;53770;42.334;23.550;2022-09-09T06:54:37;20.22;62.32
66861;SHT31;53770;42.334;23.550;2022-09-09T06:57:03;20.40;62.00
66861;SHT31;53770;42.334;23.550;2022-09-09T06:59:32;20.54;60.93
66861;SHT31;53770;42.334;23.550;2022-09-09T07:01:59;20.68;60.54
66861;SHT31;53770;42.334;23.550;2022-09-09T07:04:26;20.83;60.68
66861;SHT31;53770;42.334;23.550;2022-09-09T07:06:54;21.01;60.19
66861;SHT31;53770;42.334;23.550;2022-09-09T07:09:21;21.12;59.53
66861;SHT31;53770;42.334;23.550;2022-09-09T07:11:50;21.26;59.06
66861;SHT31;53770;42.334;23.550;2022-09-09T07:14:18;21.39;58.44
66861;SHT31;53770;42.334;23.550;2022-09-09T07:16:45;21.51;58.63
66861;SHT31;53770;42.334;23.550;2022-09-09T07:19:13;21.71;58.63
66861;SHT31;53770;42.334;23.550;2022-09-09T07:21:40;21.91;58.36
66861;SHT31;53770;42.334;23.550;2022-09-09T07:24:08;22.09;57.24
66861;SHT31;53770;42.334;23.550;2022-09-09T07:26:36;22.24;55.75
66861;SHT31;53770;42.334;23.550;2022-09-09T07:29:03;22.35;56.02
66861;SHT31;53770;42.334;23.550;2022-09-09T07:31:32;22.51;55.39
66861;SHT31;53770;42.334;23.550;2022-09-09T07:34:00;22.72;54.87
66861;SHT31;53770;42.334;23.550;2022-09-09T07:36:29;22.87;54.32
66861;SHT31;53770;42.334;23.550;2022-09-09T07:38:57;23.04;54.36
66861;SHT31;53770;42.334;23.550;2022-09-09T07:41:27;23.25;54.21
66861;SHT31;53770;42.334;23.550;2022-09-09T07:43:54;23.42;53.83
66861;SHT31;53770;42.334;23.550;2022-09-09T07:46:22;23.65;53.51
66861;SHT31;53770;42.334;23.550;2022-09-09T07:48:51;23.87;53.06
66861;SHT31;53770;42.334;23.550;2022-09-09T07:51:20;24.07;52.31
66861;SHT31;53770;42.334;23.550;2022-09-09T07:53:48;24.25;51.76
66861;SHT31;53770;42.334;23.550;2022-09-09T07:56:17;24.38;51.50
66861;SHT31;53770;42.334;23.550;2022-09-09T07:58:46;24.51;51.60
66861;SHT31;53770;42.334;23.550;2022-09-09T08:01:15;24.64;50.43
66861;SHT31;53770;42.334;23.550;2022-09-09T08:03:42;24.80;50.13
66861;SHT31;53770;42.334;23.550;2022-09-09T08:06:10;24.88;49.28
66861;SHT31;53770;42.334;23.550;2022-09-09T08:08:38;24.93;49.54
66861;SHT31;53770;42.334;23.550;2022-09-09T08:11:09;25.10;49.37
66861;SHT31;53770;42.334;23.550;2022-09-09T08:13:37;25.31;49.10
66861;SHT31;53770;42.334;23.550;2022-09-09T08:16:08;25.50;48.89
66861;SHT31;53770;42.334;23.550;2022-09-09T08:18:35;25.95;48.22
66861;SHT31;53770;42.334;23.550;2022-09-09T08:21:11;26.50;47.45
66861;SHT31;53770;42.334;23.550;2022-09-09T08:23:39;26.84;46.44
66861;SHT31;53770;42.334;23.550;2022-09-09T08:26:07;27.01;46.42
66861;SHT31;53770;42.334;23.550;2022-09-09T08:28:35;27.38;45.14
66861;SHT31;53770;42.334;23.550;2022-09-09T08:31:08;27.69;44.59
66861;SHT31;53770;42.334;23.550;2022-09-09T08:33:35;27.95;44.25
66861;SHT31;53770;42.334;23.550;2022-09-09T08:36:04;28.14;43.83
66861;SHT31;53770;42.334;23.550;2022-09-09T08:38:32;28.18;43.03
66861;SHT31;53770;42.334;23.550;2022-09-09T08:41:07;28.26;43.30
66861;SHT31;53770;42.334;23.550;2022-09-09T08:43:37;28.36;43.23
66861;SHT31;53770;42.334;23.550;2022-09-09T08:46:11;28.48;42.70
66861;SHT31;53770;42.334;23.550;2022-09-09T08:48:47;28.64;42.59
66861;SHT31;53770;42.334;23.550;2022-09-09T08:51:18;28.93;41.94
66861;SHT31;53770;42.334;23.550;2022-09-09T08:53:48;29.17;41.51
66861;SHT31;53770;42.334;23.550;2022-09-09T08:56:18;29.28;41.06
66861;SHT31;53770;42.334;23.550;2022-09-09T08:58:48;29.29;41.15
66861;SHT31;53770;42.334;23.550;2022-09-09T09:01:38;29.72;40.66
66861;SHT31;53770;42.334;23.550;2022-09-09T09:04:20;30.61;39.14
66861;SHT31;53770;42.334;23.550;2022-09-09T09:06:54;31.31;37.74
66861;SHT31;53770;42.334;23.550;2022-09-09T09:09:30;31.68;36.41
66861;SHT31;53770;42.334;23.550;2022-09-09T09:12:01;31.96;35.50
66861;SHT31;53770;42.334;23.550;2022-09-09T09:14:29;32.15;34.94
66861;SHT31;53770;42.334;23.550;2022-09-09T09:17:02;32.19;34.66
66861;SHT31;53770;42.334;23.550;2022-09-09T09:19:33;32.01;35.41
66861;SHT31;53770;42.334;23.550;2022-09-09T09:22:05;31.75;35.47
66861;SHT31;53770;42.334;23.550;2022-09-09T09:24:41;31.65;35.84
66861;SHT31;53770;42.334;23.550;2022-09-09T09:27:13;31.91;35.83
66861;SHT31;53770;42.334;23.550;2022-09-09T09:29:40;32.13;35.54
66861;SHT31;53770;42.334;23.550;2022-09-09T09:32:14;32.15;35.17
66861;SHT31;53770;42.334;23.550;2022-09-09T09:34:48;32.40;35.15
66861;SHT31;53770;42.334;23.550;2022-09-09T09:37:17;32.74;34.89
66861;SHT31;53770;42.334;23.550;2022-09-09T09:39:45;33.01;34.17
66861;SHT31;53770;42.334;23.550;2022-09-09T09:42:14;33.35;33.95
66861;SHT31;53770;42.334;23.550;2022-09-09T09:44:43;34.07;33.52
66861;SHT31;53770;42.334;23.550;2022-09-09T09:47:14;34.68;32.40
66861;SHT31;53770;42.334;23.550;2022-09-09T09:49:51;34.73;31.54
66861;SHT31;53770;42.334;23.550;2022-09-09T09:52:22;34.49;31.91
66861;SHT31;53770;42.334;23.550;2022-09-09T09:54:49;34.82;31.61
66861;SHT31;53770;42.334;23.550;2022-09-09T09:57:17;35.27;31.31
66861;SHT31;53770;42.334;23.550;2022-09-09T09:59:45;35.75;30.19
66861;SHT31;53770;42.334;23.550;2022-09-09T10:02:19;36.88;29.34
66861;SHT31;53770;42.334;23.550;2022-09-09T10:04:46;37.26;28.23
66861;SHT31;53770;42.334;23.550;2022-09-09T10:07:18;37.53;27.85
66861;SHT31;53770;42.334;23.550;2022-09-09T10:09:45;37.52;27.23
66861;SHT31;53770;42.334;23.550;2022-09-09T10:12:20;37.22;27.76
66861;SHT31;53770;42.334;23.550;2022-09-09T10:14:55;36.51;28.09
66861;SHT31;53770;42.334;23.550;2022-09-09T10:17:32;35.64;28.73
66861;SHT31;53770;42.334;23.550;2022-09-09T10:20:16;34.93;29.85
66861;SHT31;53770;42.334;23.550;2022-09-09T10:22:47;35.07;30.07
66861;SHT31;53770;42.334;23.550;2022-09-09T10:25:36;36.33;28.70
66861;SHT31;53770;42.334;23.550;2022-09-09T10:28:29;37.86;27.49
66861;SHT31;53770;42.334;23.550;2022-09-09T10:31:04;38.44;26.27
66861;SHT31;53770;42.334;23.550;2022-09-09T10:33:44;37.94;26.54
66861;SHT31;53770;42.334;23.550;2022-09-09T10:36:17;38.47;26.18
66861;SHT31;53770;42.334;23.550;2022-09-09T10:38:46;38.93;25.67
66861;SHT31;53770;42.334;23.550;2022-09-09T10:41:18;39.41;24.93
66861;SHT31;53770;42.334;23.550;2022-09-09T10:44:06;38.92;24.81
66861;SHT31;53770;42.334;23.550;2022-09-09T10:46:43;37.94;25.64
66861;SHT31;53770;42.334;23.550;2022-09-09T10:49:23;36.91;26.86
66861;SHT31;53770;42.334;23.550;2022-09-09T10:51:58;36.35;27.78
66861;SHT31;53770;42.334;23.550;2022-09-09T10:54:42;35.43;28.66
66861;SHT31;53770;42.334;23.550;2022-09-09T10:57:18;34.31;29.97
66861;SHT31;53770;42.334;23.550;2022-09-09T10:59:52;33.33;31.76
66861;SHT31;53770;42.334;23.550;2022-09-09T11:02:27;32.50;32.64
66861;SHT31;53770;42.334;23.550;2022-09-09T11:04:57;31.93;33.17
66861;SHT31;53770;42.334;23.550;2022-09-09T11:07:28;31.54;33.66
66861;SHT31;53770;42.334;23.550;2022-09-09T11:10:02;31.31;33.91
66861;SHT31;53770;42.334;23.550;2022-09-09T11:12:34;31.09;34.29
66861;SHT31;53770;42.334;23.550;2022-09-09T11:15:06;30.80;35.70
66861;SHT31;53770;42.334;23.550;2022-09-09T11:17:40;30.45;36.08
66861;SHT31;53770;42.334;23.550;2022-09-09T11:20:13;30.14;36.97
66861;SHT31;53770;42.334;23.550;2022-09-09T11:22:46;29.92;37.70
66861;SHT31;53770;42.334;23.550;2022-09-09T11:25:16;29.79;38.65
66861;SHT31;53770;42.334;23.550;2022-09-09T11:27:56;29.59;39.80
66861;SHT31;53770;42.334;23.550;2022-09-09T11:30:34;29.58;40.17
66861;SHT31;53770;42.334;23.550;2022-09-09T11:33:23;29.69;40.46
66861;SHT31;53770;42.334;23.550;2022-09-09T11:36:13;30.10;39.67
66861;SHT31;53770;42.334;23.550;2022-09-09T11:38:45;31.00;38.29
66861;SHT31;53770;42.334;23.550;2022-09-09T11:41:14;31.77;36.67
66861;SHT31;53770;42.334;23.550;2022-09-09T11:43:43;32.43;35.90
66861;SHT31;53770;42.334;23.550;2022-09-09T11:46:10;33.45;34.69
66861;SHT31;53770;42.334;23.550;2022-09-09T11:48:40;34.69;33.18
66861;SHT31;53770;42.334;23.550;2022-09-09T11:51:12;35.68;31.90
66861;SHT31;53770;42.334;23.550;2022-09-09T11:53:49;36.25;31.31
66861;SHT31;53770;42.334;23.550;2022-09-09T11:56:28;36.47;30.85
66861;SHT31;53770;42.334;23.550;2022-09-09T11:59:03;36.41;30.62
66861;SHT31;53770;42.334;23.550;2022-09-09T12:01:38;34.90;32.63
66861;SHT31;53770;42.334;23.550;2022-09-09T12:04:28;34.47;33.07
66861;SHT31;53770;42.334;23.550;2022-09-09T12:07:00;34.62;33.46
66861;SHT31;53770;42.334;23.550;2022-09-09T12:09:39;34.69;33.17
66861;SHT31;53770;42.334;23.550;2022-09-09T12:17:56;32.70;35.83
66861;SHT31;53770;42.334;23.550;2022-09-09T12:20:29;31.98;36.99
66861;SHT31;53770;42.334;23.550;2022-09-09T12:23:32;31.17;37.87
66861;SHT31;53770;42.334;23.550;2022-09-09T12:28:54;29.70;41.32
66861;SHT31;53770;42.334;23.550;2022-09-09T12:31:27;29.35;42.08
66861;SHT31;53770;42.334;23.550;2022-09-09T12:34:06;29.18;42.69
66861;SHT31;53770;42.334;23.550;2022-09-09T12:36:37;29.03;42.76
66861;SHT31;53770;42.334;23.550;2022-09-09T12:39:16;28.89;42.83
66861;SHT31;53770;42.334;23.550;2022-09-09T12:41:51;28.81;43.25
66861;SHT31;53770;42.334;23.550;2022-09-09T12:44:23;29.04;43.16
66861;SHT31;53770;42.334;23.550;2022-09-09T12:46:51;29.19;42.67
66861;SHT31;53770;42.334;23.550;2022-09-09T12:49:37;29.24;42.48
66861;SHT31;53770;42.334;23.550;2022-09-09T12:52:11;29.08;42.54
66861;SHT31;53770;42.334;23.550;2022-09-09T12:54:44;28.96;42.91
66861;SHT31;53770;42.334;23.550;2022-09-09T12:57:12;29.04;43.15
66861;SHT31;53770;42.334;23.550;2022-09-09T12:59:41;29.15;42.92
66861;SHT31;53770;42.334;23.550;2022-09-09T13:02:18;29.15;42.85
66861;SHT31;53770;42.334;23.550;2022-09-09T13:04:45;28.86;42.65
66861;SHT31;53770;42.334;23.550;2022-09-09T13:07:13;28.22;44.45
66861;SHT31;53770;42.334;23.550;2022-09-09T13:09:43;27.91;45.46
66861;SHT31;53770;42.334;23.550;2022-09-09T13:12:14;27.67;46.36
66861;SHT31;53770;42.334;23.550;2022-09-09T13:14:44;27.28;47.27
66861;SHT31;53770;42.334;23.550;2022-09-09T13:17:19;26.92;48.07
66861;SHT31;53770;42.334;23.550;2022-09-09T13:19:47;26.61;48.88
66861;SHT31;53770;42.334;23.550;2022-09-09T13:22:21;26.26;49.50
66861;SHT31;53770;42.334;23.550;2022-09-09T13:24:59;26.02;50.01
66861;SHT31;53770;42.334;23.550;2022-09-09T13:27:30;25.82;50.61
66861;SHT31;53770;42.334;23.550;2022-09-09T13:29:57;25.71;50.90
66861;SHT31;53770;42.334;23.550;2022-09-09T13:32:25;25.68;51.11
66861;SHT31;53770;42.334;23.550;2022-09-09T13:34:55;25.61;51.49
66861;SHT31;53770;42.334;23.550;2022-09-09T13:37:24;25.57;51.59
66861;SHT31;53770;42.334;23.550;2022-09-09T13:39:54;25.61;51.66
66861;SHT31;53770;42.334;23.550;2022-09-09T13:42:24;25.55;51.53
66861;SHT31;53770;42.334;23.550;2022-09-09T13:44:52;25.41;52.04
66861;SHT31;53770;42.334;23.550;2022-09-09T13:47:20;25.44;52.17
66861;SHT31;53770;42.334;23.550;2022-09-09T13:49:48;25.43;52.61
66861;SHT31;53770;42.334;23.550;2022-09-09T13:52:16;25.40;52.63
66861;SHT31;53770;42.334;23.550;2022-09-09T13:54:47;25.53;52.86
66861;SHT31;53770;42.334;23.550;2022-09-09T13:57:17;25.70;53.11
66861;SHT31;53770;42.334;23.550;2022-09-09T13:59:44;25.71;52.84
66861;SHT31;53770;42.334;23.550;2022-09-09T14:02:11;25.64;53.39
66861;SHT31;53770;42.334;23.550;2022-09-09T14:04:37;25.68;53.75
66861;SHT31;53770;42.334;23.550;2022-09-09T14:07:09;25.70;53.36
66861;SHT31;53770;42.334;23.550;2022-09-09T14:09:37;25.68;53.59
66861;SHT31;53770;42.334;23.550;2022-09-09T14:12:04;25.74;53.88
66861;SHT31;53770;42.334;23.550;2022-09-09T14:14:32;25.81;53.70
66861;SHT31;53770;42.334;23.550;2022-09-09T14:17:00;25.93;53.92
66861;SHT31;53770;42.334;23.550;2022-09-09T14:19:26;26.09;53.37
66861;SHT31;53770;42.334;23.550;2022-09-09T14:21:53;26.25;52.50
66861;SHT31;53770;42.334;23.550;2022-09-09T14:24:20;26.47;51.84
66861;SHT31;53770;42.334;23.550;2022-09-09T14:26:46;26.71;51.06
66861;SHT31;53770;42.334;23.550;2022-09-09T14:29:13;26.84;50.56
66861;SHT31;53770;42.334;23.550;2022-09-09T14:31:41;27.22;49.76
66861;SHT31;53770;42.334;23.550;2022-09-09T14:34:08;28.07;48.25
66861;SHT31;53770;42.334;23.550;2022-09-09T14:36:35;28.36;46.71
66861;SHT31;53770;42.334;23.550;2022-09-09T14:39:02;28.99;45.57
66861;SHT31;53770;42.334;23.550;2022-09-09T14:41:29;28.93;45.39
66861;SHT31;53770;42.334;23.550;2022-09-09T14:43:56;28.60;46.16
66861;SHT31;53770;42.334;23.550;2022-09-09T14:46:23;28.28;46.46
66861;SHT31;53770;42.334;23.550;2022-09-09T14:48:51;28.00;47.24
66861;SHT31;53770;42.334;23.550;2022-09-09T14:51:19;27.70;48.26
66861;SHT31;53770;42.334;23.550;2022-09-09T14:53:47;27.49;48.80
66861;SHT31;53770;42.334;23.550;2022-09-09T14:56:16;27.35;49.24
66861;SHT31;53770;42.334;23.550;2022-09-09T14:58:43;27.42;49.06
66861;SHT31;53770;42.334;23.550;2022-09-09T15:01:13;28.15;47.80
66861;SHT31;53770;42.334;23.550;2022-09-09T15:03:42;29.27;45.81
66861;SHT31;53770;42.334;23.550;2022-09-09T15:06:12;30.41;43.81
66861;SHT31;53770;42.334;23.550;2022-09-09T15:08:41;31.38;41.72
66861;SHT31;53770;42.334;23.550;2022-09-09T15:11:08;32.08;39.80
66861;SHT31;53770;42.334;23.550;2022-09-09T15:13:39;32.50;39.13
66861;SHT31;53770;42.334;23.550;2022-09-09T15:16:08;32.92;38.29
66861;SHT31;53770;42.334;23.550;2022-09-09T15:18:35;33.25;37.55
66861;SHT31;53770;42.334;23.550;2022-09-09T15:21:08;33.41;37.07
66861;SHT31;53770;42.334;23.550;2022-09-09T15:23:36;33.42;36.97
66861;SHT31;53770;42.334;23.550;2022-09-09T15:26:04;33.28;36.95
66861;SHT31;53770;42.334;23.550;2022-09-09T15:28:32;32.29;37.98
66861;SHT31;53770;42.334;23.550;2022-09-09T15:31:05;30.90;39.98
66861;SHT31;53770;42.334;23.550;2022-09-09T15:33:32;29.62;42.28
66861;SHT31;53770;42.334;23.550;2022-09-09T15:35:59;28.62;44.24
66861;SHT31;53770;42.334;23.550;2022-09-09T15:38:26;27.78;45.92
66861;SHT31;53770;42.334;23.550;2022-09-09T15:40:55;27.18;47.29
66861;SHT31;53770;42.334;23.550;2022-09-09T15:43:22;26.73;48.32
66861;SHT31;53770;42.334;23.550;2022-09-09T15:45:53;26.39;49.06
66861;SHT31;53770;42.334;23.550;2022-09-09T15:48:29;26.08;49.72